sensor_id;sensor_type;location;lat;lon;timestamp;P1;durP1;ratioP1;P2;durP2;ratioP2
13816;SDS011;6979;52.116;5.286;2022-10-16T00:01:29;2.00;;;1.90;;
13816;SDS011;6979;52.116;5.286;2022-10-16T00:03:56;5.50;;;2.20;;
13816;SDS011;6979;52.116;5.286;2022-10-16T00:06:25;2.20;;;2.00;;
13816;SDS011;6979;52.116;5.286;2022-10-16T00:08:53;4.83;;;2.00;;
13816;SDS011;6979;52.116;5.286;2022-10-16T00:11:21;4.77;;;2.20;;
13816;SDS011;6979;52.116;5.286;2022-10-16T00:13:50;2.17;;;1.80;;
13816;SDS011;6979;52.116;5.286;2022-10-16T00:16:20;4.07;;;1.80;;
13816;SDS011;6979;52.116;5.286;2022-10-16T00:18:49;2.13;;;1.90;;
13816;SDS011;6979;52.116;5.286;2022-10-16T00:21:16;3.27;;;1.90;;
13816;SDS011;6979;52.116;5.286;2022-10-16T00:23:50;2.37;;;1.90;;
13816;SDS011;6979;52.116;5.286;2022-10-16T00:26:18;3.70;;;2.33;;
13816;SDS011;6979;52.116;5.286;2022-10-16T00:28:46;5.20;;;2.23;;
13816;SDS011;6979;52.116;5.286;2022-10-16T00:31:13;3.20;;;2.10;;
13816;SDS011;6979;52.116;5.286;2022-10-16T00:33:41;2.77;;;2.50;;
13816;SDS011;6979;52.116;5.286;2022-10-16T00:36:11;4.00;;;2.30;;
13816;SDS011;6979;52.116;5.286;2022-10-16T00:38:39;2.40;;;2.20;;
13816;SDS011;6979;52.116;5.286;2022-10-16T00:41:07;2.30;;;2.10;;
13816;SDS011;6979;52.116;5.286;2022-10-16T00:43:37;4.73;;;2.30;;
13816;SDS011;6979;52.116;5.286;2022-10-16T00:46:09;3.17;;;2.10;;
13816;SDS011;6979;52.116;5.286;2022-10-16T00:48:41;2.00;;;1.90;;
13816;SDS011;6979;52.116;5.286;2022-10-16T00:51:12;3.33;;;2.30;;
13816;SDS011;6979;52.116;5.286;2022-10-16T00:53:40;4.03;;;2.73;;
13816;SDS011;6979;52.116;5.286;2022-10-16T00:56:07;4.03;;;2.17;;
13816;SDS011;6979;52.116;5.286;2022-10-16T00:58:34;4.03;;;2.50;;
13816;SDS011;6979;52.116;5.286;2022-10-16T01:01:01;2.53;;;2.33;;
13816;SDS011;6979;52.116;5.286;2022-10-16T01:03:30;3.23;;;2.90;;
13816;SDS011;6979;52.116;5.286;2022-10-16T01:06:09;3.17;;;2.43;;
13816;SDS011;6979;52.116;5.286;2022-10-16T01:08:48;2.80;;;2.00;;
13816;SDS011;6979;52.116;5.286;2022-10-16T01:11:27;3.80;;;2.93;;
13816;SDS011;6979;52.116;5.286;2022-10-16T01:14:00;3.03;;;2.73;;
13816;SDS011;6979;52.116;5.286;2022-10-16T01:16:34;4.07;;;2.63;;
13816;SDS011;6979;52.116;5.286;2022-10-16T01:19:08;4.50;;;2.97;;
13816;SDS011;6979;52.116;5.286;2022-10-16T01:21:41;4.47;;;3.03;;
13816;SDS011;6979;52.116;5.286;2022-10-16T01:24:12;2.97;;;2.77;;
13816;SDS011;6979;52.116;5.286;2022-10-16T01:27:02;3.53;;;2.90;;
13816;SDS011;6979;52.116;5.286;2022-10-16T01:29:41;2.67;;;2.47;;
13816;SDS011;6979;52.116;5.286;2022-10-16T01:32:15;5.43;;;3.10;;
13816;SDS011;6979;52.116;5.286;2022-10-16T01:34:47;2.97;;;2.40;;
13816;SDS011;6979;52.116;5.286;2022-10-16T01:37:20;3.03;;;2.67;;
13816;SDS011;6979;52.116;5.286;2022-10-16T01:39:58;3.00;;;2.70;;
13816;SDS011;6979;52.116;5.286;2022-10-16T01:42:30;2.90;;;2.70;;
13816;SDS011;6979;52.116;5.286;2022-10-16T01:45:01;2.87;;;2.50;;
13816;SDS011;6979;52.116;5.286;2022-10-16T01:47:31;2.87;;;2.43;;
13816;SDS011;6979;52.116;5.286;2022-10-16T01:49:59;4.20;;;2.90;;
13816;SDS011;6979;52.116;5.286;2022-10-16T01:52:30;2.93;;;2.73;;
13816;SDS011;6979;52.116;5.286;2022-10-16T01:55:02;2.73;;;2.43;;
13816;SDS011;6979;52.116;5.286;2022-10-16T01:57:34;2.63;;;2.43;;
13816;SDS011;6979;52.116;5.286;2022-10-16T02:00:09;3.03;;;2.63;;
13816;SDS011;6979;52.116;5.286;2022-10-16T02:02:38;2.97;;;2.70;;
13816;SDS011;6979;52.116;5.286;2022-10-16T02:05:13;2.93;;;2.70;;
13816;SDS011;6979;52.116;5.286;2022-10-16T02:07:44;4.07;;;2.80;;
13816;SDS011;6979;52.116;5.286;2022-10-16T02:10:11;3.07;;;2.77;;
13816;SDS011;6979;52.116;5.286;2022-10-16T02:12:39;3.10;;;2.33;;
13816;SDS011;6979;52.116;5.286;2022-10-16T02:15:09;4.23;;;3.13;;
13816;SDS011;6979;52.116;5.286;2022-10-16T02:17:36;5.40;;;3.13;;
13816;SDS011;6979;52.116;5.286;2022-10-16T02:20:06;3.47;;;2.90;;
13816;SDS011;6979;52.116;5.286;2022-10-16T02:22:35;3.80;;;2.73;;
13816;SDS011;6979;52.116;5.286;2022-10-16T02:25:06;3.20;;;2.67;;
13816;SDS011;6979;52.116;5.286;2022-10-16T02:27:38;2.80;;;2.57;;
13816;SDS011;6979;52.116;5.286;2022-10-16T02:30:13;2.67;;;2.47;;
13816;SDS011;6979;52.116;5.286;2022-10-16T02:32:44;3.23;;;3.03;;
13816;SDS011;6979;52.116;5.286;2022-10-16T02:35:14;3.17;;;2.93;;
13816;SDS011;6979;52.116;5.286;2022-10-16T02:37:43;2.40;;;2.30;;
13816;SDS011;6979;52.116;5.286;2022-10-16T02:40:12;4.07;;;2.60;;
13816;SDS011;6979;52.116;5.286;2022-10-16T02:42:39;2.17;;;2.00;;
13816;SDS011;6979;52.116;5.286;2022-10-16T02:45:09;2.67;;;2.47;;
13816;SDS011;6979;52.116;5.286;2022-10-16T02:47:37;4.30;;;3.27;;
13816;SDS011;6979;52.116;5.286;2022-10-16T02:50:04;2.90;;;2.70;;
13816;SDS011;6979;52.116;5.286;2022-10-16T02:52:31;2.93;;;2.73;;
13816;SDS011;6979;52.116;5.286;2022-10-16T02:54:58;2.63;;;2.43;;
13816;SDS011;6979;52.116;5.286;2022-10-16T02:57:25;2.53;;;2.33;;
13816;SDS011;6979;52.116;5.286;2022-10-16T02:59:52;2.83;;;2.63;;
13816;SDS011;6979;52.116;5.286;2022-10-16T03:02:20;2.77;;;2.57;;
13816;SDS011;6979;52.116;5.286;2022-10-16T03:04:47;2.77;;;2.50;;
13816;SDS011;6979;52.116;5.286;2022-10-16T03:07:14;2.10;;;2.00;;
13816;SDS011;6979;52.116;5.286;2022-10-16T03:09:41;2.30;;;2.10;;
13816;SDS011;6979;52.116;5.286;2022-10-16T03:12:07;2.73;;;2.53;;
13816;SDS011;6979;52.116;5.286;2022-10-16T03:14:37;2.87;;;2.67;;
13816;SDS011;6979;52.116;5.286;2022-10-16T03:17:04;2.30;;;2.10;;
13816;SDS011;6979;52.116;5.286;2022-10-16T03:19:33;2.47;;;2.27;;
13816;SDS011;6979;52.116;5.286;2022-10-16T03:22:00;2.00;;;1.90;;
13816;SDS011;6979;52.116;5.286;2022-10-16T03:24:30;2.70;;;2.50;;
13816;SDS011;6979;52.116;5.286;2022-10-16T03:26:59;2.50;;;2.30;;
13816;SDS011;6979;52.116;5.286;2022-10-16T03:29:31;2.97;;;2.23;;
13816;SDS011;6979;52.116;5.286;2022-10-16T03:32:01;2.40;;;2.20;;
13816;SDS011;6979;52.116;5.286;2022-10-16T03:34:28;3.00;;;2.50;;
13816;SDS011;6979;52.116;5.286;2022-10-16T03:36:57;2.63;;;2.40;;
13816;SDS011;6979;52.116;5.286;2022-10-16T03:39:23;2.73;;;2.53;;
13816;SDS011;6979;52.116;5.286;2022-10-16T03:41:50;2.30;;;2.13;;
13816;SDS011;6979;52.116;5.286;2022-10-16T03:44:17;3.03;;;2.13;;
13816;SDS011;6979;52.116;5.286;2022-10-16T03:46:50;2.60;;;2.33;;
13816;SDS011;6979;52.116;5.286;2022-10-16T03:49:17;2.10;;;2.00;;
13816;SDS011;6979;52.116;5.286;2022-10-16T03:51:44;2.67;;;2.00;;
13816;SDS011;6979;52.116;5.286;2022-10-16T03:54:12;2.50;;;1.83;;
13816;SDS011;6979;52.116;5.286;2022-10-16T03:56:39;1.97;;;1.87;;
13816;SDS011;6979;52.116;5.286;2022-10-16T03:59:06;3.07;;;2.20;;
13816;SDS011;6979;52.116;5.286;2022-10-16T04:01:42;4.47;;;2.47;;
13816;SDS011;6979;52.116;5.286;2022-10-16T04:04:09;2.43;;;2.23;;
13816;SDS011;6979;52.116;5.286;2022-10-16T04:12:00;2.47;;;2.27;;
13816;SDS011;6979;52.116;5.286;2022-10-16T04:14:29;2.23;;;1.80;;
13816;SDS011;6979;52.116;5.286;2022-10-16T04:16:56;2.23;;;2.07;;
13816;SDS011;6979;52.116;5.286;2022-10-16T04:19:23;2.40;;;1.67;;
13816;SDS011;6979;52.116;5.286;2022-10-16T04:21:50;3.10;;;2.40;;
13816;SDS011;6979;52.116;5.286;2022-10-16T04:24:17;1.70;;;1.60;;
13816;SDS011;6979;52.116;5.286;2022-10-16T04:26:45;1.77;;;1.67;;
13816;SDS011;6979;52.116;5.286;2022-10-16T04:29:13;2.20;;;2.10;;
13816;SDS011;6979;52.116;5.286;2022-10-16T04:31:40;2.00;;;1.90;;
13816;SDS011;6979;52.116;5.286;2022-10-16T04:34:07;2.60;;;1.97;;
13816;SDS011;6979;52.116;5.286;2022-10-16T04:36:34;1.77;;;1.67;;
13816;SDS011;6979;52.116;5.286;2022-10-16T04:39:01;2.47;;;1.90;;
13816;SDS011;6979;52.116;5.286;2022-10-16T04:41:27;2.20;;;2.00;;
13816;SDS011;6979;52.116;5.286;2022-10-16T04:43:54;2.10;;;1.90;;
13816;SDS011;6979;52.116;5.286;2022-10-16T04:46:22;1.70;;;1.60;;
13816;SDS011;6979;52.116;5.286;2022-10-16T04:48:49;2.13;;;2.03;;
13816;SDS011;6979;52.116;5.286;2022-10-16T04:51:16;1.50;;;1.40;;
13816;SDS011;6979;52.116;5.286;2022-10-16T04:53:43;1.90;;;1.67;;
13816;SDS011;6979;52.116;5.286;2022-10-16T04:56:10;2.13;;;1.90;;
13816;SDS011;6979;52.116;5.286;2022-10-16T04:58:42;2.57;;;2.37;;
13816;SDS011;6979;52.116;5.286;2022-10-16T05:01:12;1.70;;;1.60;;
13816;SDS011;6979;52.116;5.286;2022-10-16T05:03:40;3.97;;;2.37;;
13816;SDS011;6979;52.116;5.286;2022-10-16T05:06:10;2.03;;;1.80;;
13816;SDS011;6979;52.116;5.286;2022-10-16T05:08:37;1.77;;;1.57;;
13816;SDS011;6979;52.116;5.286;2022-10-16T05:11:04;2.83;;;1.83;;
13816;SDS011;6979;52.116;5.286;2022-10-16T05:13:31;3.03;;;1.73;;
13816;SDS011;6979;52.116;5.286;2022-10-16T05:15:58;2.17;;;2.07;;
13816;SDS011;6979;52.116;5.286;2022-10-16T05:18:24;2.20;;;1.97;;
13816;SDS011;6979;52.116;5.286;2022-10-16T05:20:53;1.87;;;1.77;;
13816;SDS011;6979;52.116;5.286;2022-10-16T05:23:22;1.97;;;1.77;;
13816;SDS011;6979;52.116;5.286;2022-10-16T05:25:52;4.17;;;2.57;;
13816;SDS011;6979;52.116;5.286;2022-10-16T05:28:20;2.70;;;2.13;;
13816;SDS011;6979;52.116;5.286;2022-10-16T05:30:50;2.30;;;2.10;;
13816;SDS011;6979;52.116;5.286;2022-10-16T05:33:19;1.80;;;1.70;;
13816;SDS011;6979;52.116;5.286;2022-10-16T05:35:46;1.70;;;1.60;;
13816;SDS011;6979;52.116;5.286;2022-10-16T05:38:14;3.13;;;1.80;;
13816;SDS011;6979;52.116;5.286;2022-10-16T05:40:40;2.07;;;1.87;;
13816;SDS011;6979;52.116;5.286;2022-10-16T05:43:07;1.90;;;1.80;;
13816;SDS011;6979;52.116;5.286;2022-10-16T05:45:34;2.13;;;1.87;;
13816;SDS011;6979;52.116;5.286;2022-10-16T05:48:07;2.30;;;2.10;;
13816;SDS011;6979;52.116;5.286;2022-10-16T05:50:33;2.00;;;1.83;;
13816;SDS011;6979;52.116;5.286;2022-10-16T05:53:00;1.97;;;1.80;;
13816;SDS011;6979;52.116;5.286;2022-10-16T05:55:29;5.33;;;2.20;;
13816;SDS011;6979;52.116;5.286;2022-10-16T05:57:58;1.80;;;1.70;;
13816;SDS011;6979;52.116;5.286;2022-10-16T06:00:25;2.43;;;2.10;;
13816;SDS011;6979;52.116;5.286;2022-10-16T06:02:52;2.53;;;2.33;;
13816;SDS011;6979;52.116;5.286;2022-10-16T06:05:22;2.90;;;1.90;;
13816;SDS011;6979;52.116;5.286;2022-10-16T06:07:48;4.13;;;2.30;;
13816;SDS011;6979;52.116;5.286;2022-10-16T06:10:15;1.87;;;1.77;;
13816;SDS011;6979;52.116;5.286;2022-10-16T06:12:44;2.43;;;2.23;;
13816;SDS011;6979;52.116;5.286;2022-10-16T06:15:10;2.27;;;2.13;;
13816;SDS011;6979;52.116;5.286;2022-10-16T06:17:37;2.70;;;2.50;;
13816;SDS011;6979;52.116;5.286;2022-10-16T06:20:04;3.57;;;2.60;;
13816;SDS011;6979;52.116;5.286;2022-10-16T06:22:32;2.30;;;2.20;;
13816;SDS011;6979;52.116;5.286;2022-10-16T06:24:58;2.40;;;2.27;;
13816;SDS011;6979;52.116;5.286;2022-10-16T06:27:25;2.83;;;2.07;;
13816;SDS011;6979;52.116;5.286;2022-10-16T06:29:53;3.37;;;2.60;;
13816;SDS011;6979;52.116;5.286;2022-10-16T06:32:20;3.97;;;2.00;;
13816;SDS011;6979;52.116;5.286;2022-10-16T06:34:47;2.23;;;2.03;;
13816;SDS011;6979;52.116;5.286;2022-10-16T06:37:14;3.90;;;3.60;;
13816;SDS011;6979;52.116;5.286;2022-10-16T06:39:41;2.77;;;2.57;;
13816;SDS011;6979;52.116;5.286;2022-10-16T06:42:08;2.43;;;2.17;;
13816;SDS011;6979;52.116;5.286;2022-10-16T06:44:34;2.40;;;2.23;;
13816;SDS011;6979;52.116;5.286;2022-10-16T06:47:03;2.17;;;1.80;;
13816;SDS011;6979;52.116;5.286;2022-10-16T06:49:29;2.33;;;2.10;;
13816;SDS011;6979;52.116;5.286;2022-10-16T06:51:56;2.70;;;2.50;;
13816;SDS011;6979;52.116;5.286;2022-10-16T06:54:23;2.77;;;2.20;;
13816;SDS011;6979;52.116;5.286;2022-10-16T06:56:50;2.67;;;2.47;;
13816;SDS011;6979;52.116;5.286;2022-10-16T06:59:19;2.73;;;2.53;;
13816;SDS011;6979;52.116;5.286;2022-10-16T07:01:45;3.17;;;2.80;;
13816;SDS011;6979;52.116;5.286;2022-10-16T07:04:14;3.70;;;2.23;;
13816;SDS011;6979;52.116;5.286;2022-10-16T07:06:41;2.70;;;2.50;;
13816;SDS011;6979;52.116;5.286;2022-10-16T07:09:08;2.50;;;2.30;;
13816;SDS011;6979;52.116;5.286;2022-10-16T07:11:36;2.47;;;2.27;;
13816;SDS011;6979;52.116;5.286;2022-10-16T07:14:04;2.57;;;2.37;;
13816;SDS011;6979;52.116;5.286;2022-10-16T07:16:38;2.67;;;2.20;;
13816;SDS011;6979;52.116;5.286;2022-10-16T07:19:05;2.03;;;1.93;;
13816;SDS011;6979;52.116;5.286;2022-10-16T07:21:33;2.60;;;1.90;;
13816;SDS011;6979;52.116;5.286;2022-10-16T07:24:01;3.03;;;2.10;;
13816;SDS011;6979;52.116;5.286;2022-10-16T07:26:29;3.27;;;1.97;;
13816;SDS011;6979;52.116;5.286;2022-10-16T07:28:58;1.93;;;1.77;;
13816;SDS011;6979;52.116;5.286;2022-10-16T07:31:26;1.87;;;1.77;;
13816;SDS011;6979;52.116;5.286;2022-10-16T07:33:53;2.60;;;1.90;;
13816;SDS011;6979;52.116;5.286;2022-10-16T07:36:21;1.87;;;1.70;;
13816;SDS011;6979;52.116;5.286;2022-10-16T07:38:49;2.23;;;1.80;;
13816;SDS011;6979;52.116;5.286;2022-10-16T07:41:16;3.97;;;1.80;;
13816;SDS011;6979;52.116;5.286;2022-10-16T07:43:45;4.10;;;1.87;;
13816;SDS011;6979;52.116;5.286;2022-10-16T07:46:13;2.13;;;1.70;;
13816;SDS011;6979;52.116;5.286;2022-10-16T07:48:40;2.40;;;1.90;;
13816;SDS011;6979;52.116;5.286;2022-10-16T07:51:10;2.60;;;2.23;;
13816;SDS011;6979;52.116;5.286;2022-10-16T07:53:38;3.67;;;2.23;;
13816;SDS011;6979;52.116;5.286;2022-10-16T07:56:06;6.63;;;2.67;;
13816;SDS011;6979;52.116;5.286;2022-10-16T07:58:34;2.30;;;2.10;;
13816;SDS011;6979;52.116;5.286;2022-10-16T08:01:03;3.70;;;1.87;;
13816;SDS011;6979;52.116;5.286;2022-10-16T08:03:31;4.00;;;2.80;;
13816;SDS011;6979;52.116;5.286;2022-10-16T08:05:58;2.43;;;2.23;;
13816;SDS011;6979;52.116;5.286;2022-10-16T08:08:26;2.70;;;2.50;;
13816;SDS011;6979;52.116;5.286;2022-10-16T08:10:53;2.37;;;2.27;;
13816;SDS011;6979;52.116;5.286;2022-10-16T08:13:22;2.37;;;2.20;;
13816;SDS011;6979;52.116;5.286;2022-10-16T08:15:51;3.10;;;2.77;;
13816;SDS011;6979;52.116;5.286;2022-10-16T08:18:20;2.80;;;2.57;;
13816;SDS011;6979;52.116;5.286;2022-10-16T08:20:47;2.90;;;2.70;;
13816;SDS011;6979;52.116;5.286;2022-10-16T08:23:23;2.33;;;2.13;;
13816;SDS011;6979;52.116;5.286;2022-10-16T08:25:51;3.97;;;2.67;;
13816;SDS011;6979;52.116;5.286;2022-10-16T08:28:18;2.47;;;2.27;;
13816;SDS011;6979;52.116;5.286;2022-10-16T08:30:47;2.57;;;2.37;;
13816;SDS011;6979;52.116;5.286;2022-10-16T08:33:14;2.73;;;2.47;;
13816;SDS011;6979;52.116;5.286;2022-10-16T08:35:49;2.90;;;2.53;;
13816;SDS011;6979;52.116;5.286;2022-10-16T08:38:17;3.20;;;2.40;;
13816;SDS011;6979;52.116;5.286;2022-10-16T08:40:44;2.83;;;2.50;;
13816;SDS011;6979;52.116;5.286;2022-10-16T08:43:24;2.53;;;2.30;;
13816;SDS011;6979;52.116;5.286;2022-10-16T08:46:11;2.83;;;2.60;;
13816;SDS011;6979;52.116;5.286;2022-10-16T08:48:46;3.47;;;2.90;;
13816;SDS011;6979;52.116;5.286;2022-10-16T08:51:18;4.43;;;2.20;;
13816;SDS011;6979;52.116;5.286;2022-10-16T08:53:48;2.40;;;2.13;;
13816;SDS011;6979;52.116;5.286;2022-10-16T08:56:18;8.63;;;2.67;;
13816;SDS011;6979;52.116;5.286;2022-10-16T08:58:45;3.53;;;1.80;;
13816;SDS011;6979;52.116;5.286;2022-10-16T09:01:15;3.63;;;2.20;;
13816;SDS011;6979;52.116;5.286;2022-10-16T09:03:56;2.37;;;2.13;;
13816;SDS011;6979;52.116;5.286;2022-10-16T09:09:25;4.73;;;3.43;;
13816;SDS011;6979;52.116;5.286;2022-10-16T09:12:11;2.80;;;2.10;;
13816;SDS011;6979;52.116;5.286;2022-10-16T09:14:49;3.93;;;1.80;;
13816;SDS011;6979;52.116;5.286;2022-10-16T09:17:25;1.90;;;1.60;;
13816;SDS011;6979;52.116;5.286;2022-10-16T09:20:06;4.53;;;1.80;;
13816;SDS011;6979;52.116;5.286;2022-10-16T09:22:47;4.63;;;1.77;;
13816;SDS011;6979;52.116;5.286;2022-10-16T09:25:14;2.90;;;1.90;;
13816;SDS011;6979;52.116;5.286;2022-10-16T09:27:44;3.70;;;1.80;;
13816;SDS011;6979;52.116;5.286;2022-10-16T09:51:01;3.63;;;1.77;;
13816;SDS011;6979;52.116;5.286;2022-10-16T09:57:50;4.43;;;3.07;;
13816;SDS011;6979;52.116;5.286;2022-10-16T10:03:08;3.97;;;1.93;;
13816;SDS011;6979;52.116;5.286;2022-10-16T10:19:46;3.20;;;1.70;;
13816;SDS011;6979;52.116;5.286;2022-10-16T10:22:29;6.00;;;2.00;;
13816;SDS011;6979;52.116;5.286;2022-10-16T10:25:07;4.13;;;1.90;;
13816;SDS011;6979;52.116;5.286;2022-10-16T10:31:25;1.77;;;1.50;;
13816;SDS011;6979;52.116;5.286;2022-10-16T10:34:16;4.63;;;3.13;;
13816;SDS011;6979;52.116;5.286;2022-10-16T10:36:56;5.27;;;1.90;;
13816;SDS011;6979;52.116;5.286;2022-10-16T10:39:32;6.60;;;2.17;;
13816;SDS011;6979;52.116;5.286;2022-10-16T10:42:12;3.40;;;2.27;;
13816;SDS011;6979;52.116;5.286;2022-10-16T10:44:52;4.27;;;2.10;;
13816;SDS011;6979;52.116;5.286;2022-10-16T10:47:40;4.43;;;1.80;;
13816;SDS011;6979;52.116;5.286;2022-10-16T10:50:18;4.20;;;2.23;;
13816;SDS011;6979;52.116;5.286;2022-10-16T10:52:53;4.20;;;1.50;;
13816;SDS011;6979;52.116;5.286;2022-10-16T10:55:27;4.67;;;2.10;;
13816;SDS011;6979;52.116;5.286;2022-10-16T11:01:05;5.50;;;2.27;;
13816;SDS011;6979;52.116;5.286;2022-10-16T11:03:41;3.37;;;1.60;;
13816;SDS011;6979;52.116;5.286;2022-10-16T11:06:21;3.27;;;1.73;;
13816;SDS011;6979;52.116;5.286;2022-10-16T11:08:53;5.20;;;2.07;;
13816;SDS011;6979;52.116;5.286;2022-10-16T11:11:29;3.87;;;2.27;;
13816;SDS011;6979;52.116;5.286;2022-10-16T12:12:25;3.83;;;1.43;;
13816;SDS011;6979;52.116;5.286;2022-10-16T12:15:00;4.57;;;1.43;;
13816;SDS011;6979;52.116;5.286;2022-10-16T12:17:34;4.20;;;1.77;;
13816;SDS011;6979;52.116;5.286;2022-10-16T12:20:14;2.57;;;1.40;;
13816;SDS011;6979;52.116;5.286;2022-10-16T12:22:49;3.17;;;1.70;;
13816;SDS011;6979;52.116;5.286;2022-10-16T12:25:24;3.53;;;1.70;;
13816;SDS011;6979;52.116;5.286;2022-10-16T12:28:01;4.53;;;1.83;;
13816;SDS011;6979;52.116;5.286;2022-10-16T12:31:09;3.83;;;1.30;;
13816;SDS011;6979;52.116;5.286;2022-10-16T12:33:37;5.23;;;1.53;;
13816;SDS011;6979;52.116;5.286;2022-10-16T12:36:08;2.57;;;1.73;;
13816;SDS011;6979;52.116;5.286;2022-10-16T12:38:45;2.80;;;1.27;;
13816;SDS011;6979;52.116;5.286;2022-10-16T12:41:23;3.40;;;1.60;;
13816;SDS011;6979;52.116;5.286;2022-10-16T12:43:52;2.67;;;1.70;;
13816;SDS011;6979;52.116;5.286;2022-10-16T12:46:26;3.60;;;2.00;;
13816;SDS011;6979;52.116;5.286;2022-10-16T12:49:07;2.93;;;1.40;;
13816;SDS011;6979;52.116;5.286;2022-10-16T12:51:57;4.13;;;1.83;;
13816;SDS011;6979;52.116;5.286;2022-10-16T12:54:25;3.83;;;1.77;;
13816;SDS011;6979;52.116;5.286;2022-10-16T12:57:02;4.10;;;1.63;;
13816;SDS011;6979;52.116;5.286;2022-10-16T12:59:46;3.13;;;1.47;;
13816;SDS011;6979;52.116;5.286;2022-10-16T13:05:35;4.10;;;1.90;;
13816;SDS011;6979;52.116;5.286;2022-10-16T13:08:14;2.60;;;2.10;;
13816;SDS011;6979;52.116;5.286;2022-10-16T13:10:54;2.97;;;1.83;;
13816;SDS011;6979;52.116;5.286;2022-10-16T13:13:36;2.73;;;1.40;;
13816;SDS011;6979;52.116;5.286;2022-10-16T13:16:26;7.30;;;2.17;;
13816;SDS011;6979;52.116;5.286;2022-10-16T13:19:04;5.07;;;1.93;;
13816;SDS011;6979;52.116;5.286;2022-10-16T13:21:39;3.30;;;1.50;;
13816;SDS011;6979;52.116;5.286;2022-10-16T13:24:16;7.07;;;1.87;;
13816;SDS011;6979;52.116;5.286;2022-10-16T13:26:52;2.17;;;1.27;;
13816;SDS011;6979;52.116;5.286;2022-10-16T13:29:23;3.23;;;1.43;;
13816;SDS011;6979;52.116;5.286;2022-10-16T13:31:51;3.93;;;1.57;;
13816;SDS011;6979;52.116;5.286;2022-10-16T13:34:18;3.43;;;1.63;;
13816;SDS011;6979;52.116;5.286;2022-10-16T13:36:49;3.53;;;1.83;;
13816;SDS011;6979;52.116;5.286;2022-10-16T13:39:20;5.97;;;1.93;;
13816;SDS011;6979;52.116;5.286;2022-10-16T13:42:01;3.50;;;1.40;;
13816;SDS011;6979;52.116;5.286;2022-10-16T13:44:30;3.07;;;1.80;;
13816;SDS011;6979;52.116;5.286;2022-10-16T13:47:10;4.70;;;1.60;;
13816;SDS011;6979;52.116;5.286;2022-10-16T13:49:42;4.07;;;1.70;;
13816;SDS011;6979;52.116;5.286;2022-10-16T13:52:15;4.23;;;1.90;;
13816;SDS011;6979;52.116;5.286;2022-10-16T13:54:44;5.50;;;2.13;;
13816;SDS011;6979;52.116;5.286;2022-10-16T13:57:12;2.37;;;1.50;;
13816;SDS011;6979;52.116;5.286;2022-10-16T13:59:40;5.00;;;1.53;;
13816;SDS011;6979;52.116;5.286;2022-10-16T14:02:14;3.87;;;2.00;;
13816;SDS011;6979;52.116;5.286;2022-10-16T14:04:46;3.17;;;1.47;;
13816;SDS011;6979;52.116;5.286;2022-10-16T14:07:13;5.57;;;1.67;;
13816;SDS011;6979;52.116;5.286;2022-10-16T14:09:47;5.13;;;1.67;;
13816;SDS011;6979;52.116;5.286;2022-10-16T14:12:15;2.00;;;1.47;;
13816;SDS011;6979;52.116;5.286;2022-10-16T14:14:43;2.00;;;1.63;;
13816;SDS011;6979;52.116;5.286;2022-10-16T14:17:16;6.57;;;1.87;;
13816;SDS011;6979;52.116;5.286;2022-10-16T14:19:46;3.53;;;1.80;;
13816;SDS011;6979;52.116;5.286;2022-10-16T14:22:20;6.53;;;5.33;;
13816;SDS011;6979;52.116;5.286;2022-10-16T14:24:54;4.00;;;2.43;;
13816;SDS011;6979;52.116;5.286;2022-10-16T14:27:23;3.33;;;1.60;;
13816;SDS011;6979;52.116;5.286;2022-10-16T14:30:03;4.23;;;1.67;;
13816;SDS011;6979;52.116;5.286;2022-10-16T14:32:39;4.50;;;1.93;;
13816;SDS011;6979;52.116;5.286;2022-10-16T14:35:21;5.60;;;2.30;;
13816;SDS011;6979;52.116;5.286;2022-10-16T14:37:51;3.90;;;1.53;;
13816;SDS011;6979;52.116;5.286;2022-10-16T14:40:18;6.63;;;1.93;;
13816;SDS011;6979;52.116;5.286;2022-10-16T14:42:49;2.60;;;1.77;;
13816;SDS011;6979;52.116;5.286;2022-10-16T14:45:18;3.03;;;1.57;;
13816;SDS011;6979;52.116;5.286;2022-10-16T14:47:49;3.03;;;1.57;;
13816;SDS011;6979;52.116;5.286;2022-10-16T14:50:17;2.90;;;1.60;;
13816;SDS011;6979;52.116;5.286;2022-10-16T14:52:44;2.47;;;1.47;;
13816;SDS011;6979;52.116;5.286;2022-10-16T14:55:11;4.00;;;1.83;;
13816;SDS011;6979;52.116;5.286;2022-10-16T14:57:38;5.40;;;2.47;;
13816;SDS011;6979;52.116;5.286;2022-10-16T15:00:10;3.93;;;2.40;;
13816;SDS011;6979;52.116;5.286;2022-10-16T15:02:44;4.97;;;3.37;;
13816;SDS011;6979;52.116;5.286;2022-10-16T15:05:14;6.20;;;5.07;;
13816;SDS011;6979;52.116;5.286;2022-10-16T15:07:43;5.20;;;3.83;;
13816;SDS011;6979;52.116;5.286;2022-10-16T15:10:10;5.50;;;2.90;;
13816;SDS011;6979;52.116;5.286;2022-10-16T15:12:37;5.27;;;3.20;;
13816;SDS011;6979;52.116;5.286;2022-10-16T15:15:16;4.20;;;2.30;;
13816;SDS011;6979;52.116;5.286;2022-10-16T15:17:52;2.83;;;1.50;;
13816;SDS011;6979;52.116;5.286;2022-10-16T15:20:23;4.23;;;2.90;;
13816;SDS011;6979;52.116;5.286;2022-10-16T15:22:50;4.97;;;2.43;;
13816;SDS011;6979;52.116;5.286;2022-10-16T15:25:23;3.80;;;2.00;;
13816;SDS011;6979;52.116;5.286;2022-10-16T15:27:55;3.67;;;2.37;;
13816;SDS011;6979;52.116;5.286;2022-10-16T15:30:21;4.63;;;2.87;;
13816;SDS011;6979;52.116;5.286;2022-10-16T15:32:48;3.73;;;2.50;;
13816;SDS011;6979;52.116;5.286;2022-10-16T15:35:15;5.13;;;2.53;;
13816;SDS011;6979;52.116;5.286;2022-10-16T15:37:44;5.93;;;2.70;;
13816;SDS011;6979;52.116;5.286;2022-10-16T15:40:12;5.90;;;3.33;;
13816;SDS011;6979;52.116;5.286;2022-10-16T15:42:39;3.37;;;2.70;;
13816;SDS011;6979;52.116;5.286;2022-10-16T15:45:06;2.97;;;2.07;;
13816;SDS011;6979;52.116;5.286;2022-10-16T15:47:34;3.57;;;2.00;;
13816;SDS011;6979;52.116;5.286;2022-10-16T15:50:01;5.83;;;2.27;;
13816;SDS011;6979;52.116;5.286;2022-10-16T15:52:28;2.87;;;2.07;;
13816;SDS011;6979;52.116;5.286;2022-10-16T15:54:58;4.57;;;1.73;;
13816;SDS011;6979;52.116;5.286;2022-10-16T15:57:25;2.57;;;1.80;;
13816;SDS011;6979;52.116;5.286;2022-10-16T15:59:54;3.40;;;1.60;;
13816;SDS011;6979;52.116;5.286;2022-10-16T16:02:21;5.27;;;1.73;;
13816;SDS011;6979;52.116;5.286;2022-10-16T16:04:47;3.43;;;1.70;;
13816;SDS011;6979;52.116;5.286;2022-10-16T16:07:14;3.10;;;1.63;;
13816;SDS011;6979;52.116;5.286;2022-10-16T16:09:41;1.77;;;1.50;;
13816;SDS011;6979;52.116;5.286;2022-10-16T16:12:11;2.60;;;2.00;;
13816;SDS011;6979;52.116;5.286;2022-10-16T16:14:40;3.20;;;2.07;;
13816;SDS011;6979;52.116;5.286;2022-10-16T16:17:11;3.77;;;2.10;;
13816;SDS011;6979;52.116;5.286;2022-10-16T16:19:38;4.67;;;2.73;;
13816;SDS011;6979;52.116;5.286;2022-10-16T16:22:05;3.63;;;2.60;;
13816;SDS011;6979;52.116;5.286;2022-10-16T16:24:31;4.70;;;2.50;;
13816;SDS011;6979;52.116;5.286;2022-10-16T16:26:58;4.27;;;2.57;;
13816;SDS011;6979;52.116;5.286;2022-10-16T16:29:27;4.90;;;2.67;;
13816;SDS011;6979;52.116;5.286;2022-10-16T16:31:53;3.30;;;2.53;;
13816;SDS011;6979;52.116;5.286;2022-10-16T16:34:22;6.07;;;3.37;;
13816;SDS011;6979;52.116;5.286;2022-10-16T16:36:50;3.67;;;3.13;;
13816;SDS011;6979;52.116;5.286;2022-10-16T16:39:17;4.53;;;3.10;;
13816;SDS011;6979;52.116;5.286;2022-10-16T16:41:44;5.83;;;3.07;;
13816;SDS011;6979;52.116;5.286;2022-10-16T16:44:11;5.50;;;3.67;;
13816;SDS011;6979;52.116;5.286;2022-10-16T16:46:40;7.83;;;5.50;;
13816;SDS011;6979;52.116;5.286;2022-10-16T16:49:08;6.20;;;4.80;;
13816;SDS011;6979;52.116;5.286;2022-10-16T16:51:36;6.27;;;4.50;;
13816;SDS011;6979;52.116;5.286;2022-10-16T16:54:04;4.47;;;4.03;;
13816;SDS011;6979;52.116;5.286;2022-10-16T16:56:31;6.37;;;3.93;;
13816;SDS011;6979;52.116;5.286;2022-10-16T16:58:59;4.33;;;3.70;;
13816;SDS011;6979;52.116;5.286;2022-10-16T17:01:26;3.87;;;3.50;;
13816;SDS011;6979;52.116;5.286;2022-10-16T17:03:56;6.23;;;3.37;;
13816;SDS011;6979;52.116;5.286;2022-10-16T17:06:25;4.27;;;3.20;;
13816;SDS011;6979;52.116;5.286;2022-10-16T17:08:54;5.20;;;3.60;;
13816;SDS011;6979;52.116;5.286;2022-10-16T17:11:22;6.03;;;3.90;;
13816;SDS011;6979;52.116;5.286;2022-10-16T17:13:51;5.37;;;3.90;;
13816;SDS011;6979;52.116;5.286;2022-10-16T17:16:19;4.47;;;3.73;;
13816;SDS011;6979;52.116;5.286;2022-10-16T17:18:46;4.23;;;3.47;;